createdAt,value
2023-11-24T00:02:07.301Z,12.17
2023-11-24T00:04:34.671Z,12.18
2023-11-24T00:07:03.370Z,12.16
2023-11-24T00:09:30.775Z,12.17
2023-11-24T00:12:00.010Z,12.16
2023-11-24T00:14:26.913Z,12.16
2023-11-24T00:16:53.769Z,12.16
2023-11-24T00:19:20.801Z,12.16
2023-11-24T00:21:51.262Z,12.16
2023-11-24T00:24:18.192Z,12.17
2023-11-24T00:26:45.160Z,12.16
2023-11-24T00:29:12.707Z,12.15
2023-11-24T00:31:39.547Z,12.15
2023-11-24T00:34:09.420Z,12.15
2023-11-24T00:36:36.660Z,12.17
2023-11-24T00:39:05.461Z,12.16
2023-11-24T00:41:32.315Z,12.16
2023-11-24T00:44:03.316Z,12.16
2023-11-24T00:46:30.818Z,12.16
2023-11-24T00:49:00.613Z,12.17
2023-11-24T00:51:27.551Z,12.17
2023-11-24T00:53:54.692Z,12.16
2023-11-24T00:56:21.885Z,12.17
2023-11-24T00:58:49.924Z,12.16
2023-11-24T01:01:16.922Z,12.16
2023-11-24T01:03:43.787Z,12.16
2023-11-24T01:06:10.645Z,12.15
2023-11-24T01:08:37.495Z,12.16
2023-11-24T01:11:04.297Z,12.16
2023-11-24T01:13:34.339Z,12.16
2023-11-24T01:16:01.445Z,12.16
2023-11-24T01:18:29.260Z,12.17
2023-11-24T01:20:56.357Z,12.17
2023-11-24T01:23:23.481Z,12.16
2023-11-24T01:25:50.363Z,12.17
2023-11-24T01:28:17.229Z,12.19
2023-11-24T01:30:44.666Z,12.19
2023-11-24T01:33:11.640Z,12.18
2023-11-24T01:35:38.559Z,12.18
2023-11-24T01:38:05.449Z,12.18
2023-11-24T01:40:32.460Z,12.18
2023-11-24T01:42:59.335Z,12.20
2023-11-24T01:45:26.306Z,12.20
2023-11-24T01:47:54.229Z,12.20
2023-11-24T01:50:21.157Z,12.20
2023-11-24T01:52:49.863Z,12.21
2023-11-24T01:55:17.934Z,12.22
2023-11-24T01:57:45.564Z,12.22
2023-11-24T02:00:14.911Z,12.23
2023-11-24T02:02:42.947Z,12.23
2023-11-24T02:05:10.529Z,12.23
2023-11-24T02:07:38.055Z,12.22
2023-11-24T02:10:05.579Z,12.22
2023-11-24T02:12:32.507Z,12.23
2023-11-24T02:14:59.406Z,12.23
2023-11-24T02:17:26.714Z,12.23
2023-11-24T02:19:53.601Z,12.22
2023-11-24T02:22:20.484Z,12.24
2023-11-24T02:24:47.323Z,12.24
2023-11-24T02:27:14.857Z,12.25
2023-11-24T02:29:41.700Z,12.24
2023-11-24T02:32:09.512Z,12.24
2023-11-24T02:34:36.594Z,12.25
2023-11-24T02:37:03.996Z,12.26
2023-11-24T02:39:30.983Z,12.26
2023-11-24T02:41:57.768Z,12.27
2023-11-24T02:44:24.664Z,12.28
2023-11-24T02:46:51.541Z,12.27
2023-11-24T02:49:18.835Z,12.28
2023-11-24T02:51:45.655Z,12.27
2023-11-24T02:54:12.529Z,12.28
2023-11-24T02:56:39.379Z,12.28
2023-11-24T02:59:06.160Z,12.29
2023-11-24T03:01:33.347Z,12.28
2023-11-24T03:04:00.284Z,12.28
2023-11-24T03:06:28.587Z,12.28
2023-11-24T03:08:55.556Z,12.28
2023-11-24T03:11:26.468Z,12.30
2023-11-24T03:13:53.350Z,12.30
2023-11-24T03:16:20.150Z,12.31
2023-11-24T03:18:47.021Z,12.30
2023-11-24T03:21:13.868Z,12.30
2023-11-24T03:23:40.799Z,12.30
2023-11-24T03:26:11.033Z,12.31
2023-11-24T03:28:38.757Z,12.30
2023-11-24T03:31:06.462Z,12.31
2023-11-24T03:33:34.587Z,12.31
2023-11-24T03:36:01.467Z,12.30
2023-11-24T03:38:28.301Z,12.31
2023-11-24T03:40:57.369Z,12.32
2023-11-24T03:43:24.633Z,12.31
2023-11-24T03:45:51.449Z,12.31
2023-11-24T03:48:22.746Z,12.32
2023-11-24T03:50:50.858Z,12.32
2023-11-24T03:53:17.692Z,12.32
2023-11-24T03:55:44.800Z,12.33
2023-11-24T03:58:11.681Z,12.32
2023-11-24T04:00:38.580Z,12.34
2023-11-24T04:03:05.809Z,12.33
2023-11-24T04:05:32.930Z,12.34
2023-11-24T04:07:59.778Z,12.34
2023-11-24T04:10:26.622Z,12.34
2023-11-24T04:12:53.524Z,12.35
2023-11-24T04:15:20.772Z,12.34
2023-11-24T04:17:48.134Z,12.35
2023-11-24T04:20:15.790Z,12.34
2023-11-24T04:22:42.688Z,12.35
2023-11-24T04:25:11.773Z,12.36
2023-11-24T04:27:39.046Z,12.36
2023-11-24T04:30:07.841Z,12.37
2023-11-24T04:32:34.685Z,12.36
2023-11-24T04:35:01.635Z,12.37
2023-11-24T04:37:28.891Z,12.37
2023-11-24T04:39:57.153Z,12.37
2023-11-24T04:42:26.144Z,12.37
2023-11-24T04:44:55.121Z,12.37
2023-11-24T04:47:22.167Z,12.37
2023-11-24T04:49:49.123Z,12.38
2023-11-24T04:52:15.973Z,12.39
2023-11-24T04:54:42.828Z,12.38
2023-11-24T04:57:11.215Z,12.38
2023-11-24T04:59:41.847Z,12.38
2023-11-24T05:02:09.008Z,12.38
2023-11-24T05:04:37.966Z,12.39
2023-11-24T05:07:05.480Z,12.37
2023-11-24T05:09:32.577Z,12.39
2023-11-24T05:11:59.471Z,12.39
2023-11-24T05:14:26.608Z,12.40
2023-11-24T05:16:53.538Z,12.40
2023-11-24T05:19:20.899Z,12.40
2023-11-24T05:21:47.726Z,12.41
2023-11-24T05:24:14.552Z,12.41
2023-11-24T05:26:41.399Z,12.41
2023-11-24T05:29:08.208Z,12.43
2023-11-24T05:31:35.067Z,12.42
2023-11-24T05:34:02.224Z,12.42
2023-11-24T05:36:29.361Z,12.43
2023-11-24T05:38:57.372Z,12.45
2023-11-24T05:41:24.187Z,12.44
2023-11-24T05:43:51.523Z,12.43
2023-11-24T05:46:18.359Z,12.43
2023-11-24T05:48:45.241Z,12.44
2023-11-24T05:51:12.131Z,12.45
2023-11-24T05:53:38.907Z,12.43
2023-11-24T05:56:08.922Z,12.44
2023-11-24T05:58:36.280Z,12.45
2023-11-24T06:01:03.435Z,12.45
2023-11-24T06:03:31.526Z,12.45
2023-11-24T06:05:58.403Z,12.46
2023-11-24T06:08:25.227Z,12.47
2023-11-24T06:10:52.178Z,12.48
2023-11-24T06:13:18.989Z,12.49
2023-11-24T06:15:45.952Z,12.47
2023-11-24T06:18:12.978Z,12.48
2023-11-24T06:20:39.844Z,12.49
2023-11-24T06:23:06.677Z,12.48
2023-11-24T06:25:33.492Z,12.49
2023-11-24T06:28:00.323Z,12.49
2023-11-24T06:30:27.263Z,12.49
2023-11-24T06:32:54.170Z,12.50
2023-11-24T06:35:22.187Z,12.51
2023-11-24T06:37:49.602Z,12.51
2023-11-24T06:40:16.706Z,12.50
2023-11-24T06:42:43.975Z,12.51
2023-11-24T06:45:14.053Z,12.52
2023-11-24T06:47:42.019Z,12.52
2023-11-24T06:50:10.742Z,12.53
2023-11-24T06:52:38.150Z,12.53
2023-11-24T06:55:05.430Z,12.53
2023-11-24T06:57:32.800Z,12.54
2023-11-24T06:59:59.700Z,12.53
2023-11-24T07:02:26.590Z,12.54
2023-11-24T07:04:54.253Z,12.54
2023-11-24T07:07:22.289Z,12.55
2023-11-24T07:09:49.273Z,12.54
2023-11-24T07:12:19.461Z,12.54
2023-11-24T07:14:47.232Z,12.54
2023-11-24T07:17:14.057Z,12.56
2023-11-24T07:19:42.623Z,12.55
2023-11-24T07:22:09.609Z,12.54
2023-11-24T07:24:44.245Z,12.55
2023-11-24T07:27:12.151Z,12.56
2023-11-24T07:29:38.937Z,12.54
2023-11-24T07:32:05.957Z,12.55
2023-11-24T07:34:32.969Z,12.55
2023-11-24T07:37:03.343Z,12.55
2023-11-24T07:39:31.729Z,12.56
2023-11-24T07:42:00.028Z,12.56
2023-11-24T07:44:32.766Z,12.56
2023-11-24T07:47:00.130Z,12.56
2023-11-24T07:49:27.163Z,12.56
2023-11-24T07:51:54.405Z,12.55
2023-11-24T07:54:21.459Z,12.55
2023-11-24T07:56:48.420Z,12.56
2023-11-24T07:59:15.393Z,12.56
2023-11-24T08:01:42.592Z,12.54
2023-11-24T08:04:09.927Z,12.56
2023-11-24T08:06:36.936Z,12.52
2023-11-24T08:09:09.480Z,12.52
2023-11-24T08:11:36.482Z,12.54
2023-11-24T08:14:03.811Z,12.54
2023-11-24T08:16:30.856Z,12.57
2023-11-24T08:18:57.750Z,12.57
2023-11-24T08:21:24.745Z,12.58
2023-11-24T08:23:51.612Z,12.58
2023-11-24T08:26:19.462Z,12.58
2023-11-24T08:28:46.697Z,12.61
2023-11-24T08:31:22.014Z,12.62
2023-11-24T08:33:50.294Z,12.61
2023-11-24T08:36:17.397Z,12.60
2023-11-24T08:38:46.177Z,12.62
2023-11-24T08:41:30.382Z,12.63
2023-11-24T08:44:02.512Z,12.64
2023-11-24T08:46:30.031Z,12.65
2023-11-24T08:48:57.559Z,12.64
2023-11-24T08:51:24.427Z,12.64
2023-11-24T08:53:51.271Z,12.66
2023-11-24T08:56:18.090Z,12.67
2023-11-24T08:58:44.919Z,12.68
2023-11-24T09:01:14.614Z,12.70
2023-11-24T09:03:41.554Z,12.70
2023-11-24T09:06:08.614Z,12.69
2023-11-24T09:08:35.468Z,12.71
2023-11-24T09:11:02.916Z,12.72
2023-11-24T09:13:29.748Z,12.73
2023-11-24T09:15:56.665Z,12.73
2023-11-24T09:18:23.953Z,12.74
2023-11-24T09:20:50.933Z,12.76
2023-11-24T09:23:18.214Z,12.77
2023-11-24T09:25:45.142Z,12.79
2023-11-24T09:28:12.215Z,12.82
2023-11-24T09:30:39.890Z,12.83
2023-11-24T09:33:09.092Z,12.86
2023-11-24T09:35:36.251Z,12.86
2023-11-24T09:38:03.061Z,12.90
2023-11-24T09:40:32.133Z,12.92
2023-11-24T09:43:05.277Z,12.92
2023-11-24T09:45:32.657Z,12.94
2023-11-24T09:48:00.427Z,12.96
2023-11-24T09:50:28.425Z,12.95
2023-11-24T09:52:57.269Z,12.98
2023-11-24T09:55:30.498Z,13.00
2023-11-24T09:57:58.760Z,13.00
2023-11-24T10:00:27.763Z,13.03
2023-11-24T10:02:59.318Z,13.04
2023-11-24T10:05:27.654Z,13.08
2023-11-24T10:07:54.691Z,13.07
2023-11-24T10:10:27.332Z,13.10
2023-11-24T10:13:00.924Z,13.12
2023-11-24T10:15:28.003Z,13.13
2023-11-24T10:17:55.039Z,13.15
2023-11-24T10:20:24.133Z,13.16
2023-11-24T10:22:51.508Z,13.17
2023-11-24T10:25:22.605Z,13.20
2023-11-24T10:27:49.997Z,13.20
2023-11-24T10:30:19.906Z,13.22
2023-11-24T10:32:50.166Z,13.24
2023-11-24T10:35:17.137Z,13.29
2023-11-24T10:37:46.012Z,13.29
2023-11-24T10:40:16.832Z,13.32
2023-11-24T10:42:49.531Z,13.33
2023-11-24T10:45:21.012Z,13.34
2023-11-24T10:48:13.533Z,13.35
2023-11-24T10:50:43.259Z,13.36
2023-11-24T10:53:24.966Z,13.37
2023-11-24T10:55:54.367Z,13.39
2023-11-24T10:58:22.730Z,13.39
2023-11-24T11:00:49.897Z,13.43
2023-11-24T11:03:17.982Z,13.44
2023-11-24T11:05:50.670Z,13.44
2023-11-24T11:08:35.939Z,13.45
2023-11-24T11:11:02.859Z,13.44
2023-11-24T11:13:31.445Z,13.46
2023-11-24T11:15:58.341Z,13.48
2023-11-24T11:18:26.714Z,13.48
2023-11-24T11:20:53.846Z,13.50
2023-11-24T11:23:21.087Z,13.52
2023-11-24T11:25:52.063Z,13.51
2023-11-24T11:28:19.289Z,13.51
2023-11-24T11:30:50.164Z,13.52
2023-11-24T11:33:21.141Z,13.53
2023-11-24T11:35:50.270Z,13.56
2023-11-24T11:38:36.666Z,13.53
2023-11-24T11:41:06.098Z,13.54
2023-11-24T11:43:32.975Z,13.55
2023-11-24T11:46:01.265Z,13.57
2023-11-24T11:48:37.298Z,13.58
2023-11-24T11:51:05.664Z,13.58
2023-11-24T11:53:35.371Z,13.58
2023-11-24T11:56:12.097Z,13.58
2023-11-24T11:58:40.025Z,13.59
2023-11-24T12:01:08.183Z,13.59
2023-11-24T12:03:35.948Z,13.60
2023-11-24T12:06:07.206Z,13.61
2023-11-24T12:08:42.602Z,13.62
2023-11-24T12:11:09.921Z,13.63
2023-11-24T12:13:40.555Z,13.64
2023-11-24T12:16:08.225Z,13.63
2023-11-24T12:18:37.344Z,13.63
2023-11-24T12:21:04.473Z,13.64
2023-11-24T12:23:31.448Z,13.68
2023-11-24T12:25:58.315Z,13.68
2023-11-24T12:28:25.178Z,13.70
2023-11-24T12:30:51.997Z,13.72
2023-11-24T12:33:23.555Z,13.73
2023-11-24T12:35:52.068Z,13.73
2023-11-24T12:38:19.665Z,13.71
2023-11-24T12:40:46.910Z,13.72
2023-11-24T12:43:18.504Z,13.72
2023-11-24T12:45:49.502Z,13.73
2023-11-24T12:48:23.149Z,13.72
2023-11-24T12:50:51.129Z,13.75
2023-11-24T12:53:21.590Z,13.78
2023-11-24T12:55:48.607Z,13.77
2023-11-24T12:58:15.960Z,13.77
2023-11-24T13:00:46.819Z,13.80
2023-11-24T13:03:13.819Z,13.79
2023-11-24T13:05:40.693Z,13.82
2023-11-24T13:08:08.311Z,13.84
2023-11-24T13:10:37.249Z,13.87
2023-11-24T13:13:04.152Z,13.86
2023-11-24T13:15:31.068Z,13.88
2023-11-24T13:17:57.957Z,13.88
2023-11-24T13:20:30.205Z,13.88
2023-11-24T13:22:57.691Z,13.87
2023-11-24T13:25:28.208Z,13.86
2023-11-24T13:27:55.518Z,13.89
2023-11-24T13:30:23.449Z,13.88
2023-11-24T13:32:50.758Z,13.86
2023-11-24T13:35:17.844Z,13.86
2023-11-24T13:37:46.175Z,13.82
2023-11-24T13:40:20.707Z,13.83
2023-11-24T13:42:47.955Z,13.83
2023-11-24T13:45:14.955Z,13.80
2023-11-24T13:47:42.836Z,13.80
2023-11-24T13:50:10.672Z,13.80
2023-11-24T13:52:37.648Z,13.82
2023-11-24T13:55:07.701Z,13.84
2023-11-24T13:57:35.056Z,13.81
2023-11-24T14:00:02.030Z,13.80
2023-11-24T14:02:29.137Z,13.82
2023-11-24T14:04:56.075Z,13.84
2023-11-24T14:07:23.185Z,13.83
2023-11-24T14:09:50.267Z,13.85
2023-11-24T14:12:17.120Z,13.88
2023-11-24T14:14:44.777Z,13.88
2023-11-24T14:17:13.468Z,13.90
2023-11-24T14:19:40.365Z,13.90
2023-11-24T14:22:08.769Z,13.90
2023-11-24T14:24:35.754Z,13.90
2023-11-24T14:27:02.659Z,13.88
2023-11-24T14:29:32.630Z,13.86
2023-11-24T14:31:59.586Z,13.87
2023-11-24T14:34:26.408Z,13.85
2023-11-24T14:36:53.282Z,13.86
2023-11-24T14:39:33.138Z,13.86
2023-11-24T14:42:00.700Z,13.87
2023-11-24T14:44:27.739Z,13.85
2023-11-24T14:46:54.722Z,13.83
2023-11-24T14:49:21.953Z,13.82
2023-11-24T14:51:50.043Z,13.85
2023-11-24T14:54:18.102Z,13.85
2023-11-24T14:56:46.825Z,13.81
2023-11-24T14:59:13.900Z,13.82
2023-11-24T15:01:44.336Z,13.84
2023-11-24T15:04:18.829Z,13.83
2023-11-24T15:06:51.760Z,13.84
2023-11-24T15:09:20.161Z,13.86
2023-11-24T15:11:49.784Z,13.83
2023-11-24T15:14:16.673Z,13.79
2023-11-24T15:17:13.217Z,13.78
2023-11-24T15:19:40.695Z,13.79
2023-11-24T15:22:10.944Z,13.77
2023-11-24T15:24:40.021Z,13.77
2023-11-24T15:27:09.216Z,13.78
2023-11-24T15:29:38.861Z,13.77
2023-11-24T15:32:09.101Z,13.75
2023-11-24T15:34:36.553Z,13.76
2023-11-24T15:37:05.316Z,13.75
2023-11-24T15:39:42.732Z,13.75
2023-11-24T15:42:10.474Z,13.73
2023-11-24T15:44:40.530Z,13.71
2023-11-24T15:47:12.468Z,13.71
2023-11-24T15:49:43.299Z,13.71
2023-11-24T15:52:13.959Z,13.71
2023-11-24T15:54:42.011Z,13.71
2023-11-24T15:57:10.205Z,13.69
2023-11-24T15:59:43.618Z,13.66
2023-11-24T16:02:13.642Z,13.62
2023-11-24T16:04:44.139Z,13.62
2023-11-24T16:07:11.696Z,13.57
2023-11-24T16:09:39.028Z,13.52
2023-11-24T16:12:13.844Z,13.51
2023-11-24T16:14:41.230Z,13.51
2023-11-24T16:17:11.192Z,13.49
2023-11-24T16:19:38.342Z,13.49
2023-11-24T16:22:06.598Z,13.47
2023-11-24T16:24:33.942Z,13.45
2023-11-24T16:27:03.971Z,13.41
2023-11-24T16:29:30.970Z,13.39
2023-11-24T16:32:00.863Z,13.39
2023-11-24T16:34:28.380Z,13.38
2023-11-24T16:36:59.392Z,13.38
2023-11-24T16:39:29.079Z,13.38
2023-11-24T16:41:56.454Z,13.35
2023-11-24T16:44:24.207Z,13.32
2023-11-24T16:46:59.376Z,13.32
2023-11-24T16:49:27.014Z,13.30
2023-11-24T16:51:54.320Z,13.26
2023-11-24T16:54:21.412Z,13.25
2023-11-24T16:56:48.531Z,13.24
2023-11-24T16:59:19.432Z,13.22
2023-11-24T17:01:46.366Z,13.20
2023-11-24T17:04:13.823Z,13.19
2023-11-24T17:06:40.779Z,13.18
2023-11-24T17:09:12.831Z,13.17
2023-11-24T17:11:43.204Z,13.15
2023-11-24T17:14:10.119Z,13.14
2023-11-24T17:16:40.517Z,13.13
2023-11-24T17:19:07.463Z,13.11
2023-11-24T17:21:34.322Z,13.10
2023-11-24T17:24:01.172Z,13.10
2023-11-24T17:26:28.996Z,13.09
2023-11-24T17:28:57.816Z,13.06
2023-11-24T17:31:25.677Z,13.05
2023-11-24T17:33:53.469Z,13.04
2023-11-24T17:36:21.363Z,13.04
2023-11-24T17:38:49.570Z,13.02
2023-11-24T17:41:16.439Z,13.01
2023-11-24T17:43:43.658Z,13.00
2023-11-24T17:46:10.575Z,12.98
2023-11-24T17:48:37.471Z,12.99
2023-11-24T17:51:04.772Z,12.96
2023-11-24T17:53:31.606Z,12.96
2023-11-24T17:56:02.266Z,12.91
2023-11-24T17:58:29.390Z,12.92
2023-11-24T18:00:59.138Z,12.91
2023-11-24T18:03:26.093Z,12.91
2023-11-24T18:05:52.994Z,12.88
2023-11-24T18:08:23.633Z,12.86
2023-11-24T18:10:50.832Z,12.86
2023-11-24T18:13:18.410Z,12.85
2023-11-24T18:15:45.443Z,12.85
2023-11-24T18:18:13.031Z,12.85
2023-11-24T18:20:41.430Z,12.84
2023-11-24T18:23:08.402Z,12.83
2023-11-24T18:25:39.756Z,12.83
2023-11-24T18:28:10.372Z,12.81
2023-11-24T18:30:38.785Z,12.81
2023-11-24T18:33:11.523Z,12.79
2023-11-24T18:35:39.770Z,12.78
2023-11-24T18:38:06.690Z,12.76
2023-11-24T18:40:33.598Z,12.74
2023-11-24T18:43:00.408Z,12.72
2023-11-24T18:45:27.266Z,12.72
2023-11-24T18:47:54.180Z,12.70
2023-11-24T18:50:21.505Z,12.68
2023-11-24T18:52:48.377Z,12.67
2023-11-24T18:55:15.375Z,12.64
2023-11-24T18:57:46.890Z,12.63
2023-11-24T19:00:19.657Z,12.62
2023-11-24T19:02:48.069Z,12.59
2023-11-24T19:05:14.976Z,12.57
2023-11-24T19:07:44.935Z,12.57
2023-11-24T19:10:12.071Z,12.54
2023-11-24T19:12:39.387Z,12.54
2023-11-24T19:15:11.724Z,12.52
2023-11-24T19:17:39.985Z,12.52
2023-11-24T19:20:08.847Z,12.51
2023-11-24T19:22:36.546Z,12.50
2023-11-24T19:25:03.728Z,12.48
2023-11-24T19:27:30.573Z,12.48
2023-11-24T19:29:57.505Z,12.46
2023-11-24T19:32:26.008Z,12.45
2023-11-24T19:34:54.099Z,12.45
2023-11-24T19:37:21.035Z,12.44
2023-11-24T19:39:49.533Z,12.42
2023-11-24T19:42:19.013Z,12.39
2023-11-24T19:44:48.105Z,12.38
2023-11-24T19:47:15.083Z,12.38
2023-11-24T19:49:42.226Z,12.38
2023-11-24T19:52:10.678Z,12.37
2023-11-24T19:54:38.981Z,12.35
2023-11-24T19:57:06.100Z,12.36
2023-11-24T19:59:32.957Z,12.34
2023-11-24T20:02:00.212Z,12.34
2023-11-24T20:04:28.980Z,12.34
2023-11-24T20:06:55.886Z,12.35
2023-11-24T20:09:23.754Z,12.33
2023-11-24T20:11:52.880Z,12.31
2023-11-24T20:14:19.758Z,12.31
2023-11-24T20:16:51.412Z,12.29
2023-11-24T20:19:18.668Z,12.30
2023-11-24T20:21:45.476Z,12.28
2023-11-24T20:24:12.282Z,12.27
2023-11-24T20:26:41.330Z,12.27
2023-11-24T20:29:09.109Z,12.28
2023-11-24T20:31:36.268Z,12.27
2023-11-24T20:34:03.327Z,12.25
2023-11-24T20:36:30.186Z,12.26
2023-11-24T20:38:58.776Z,12.26
2023-11-24T20:41:25.741Z,12.27
2023-11-24T20:43:55.141Z,12.26
2023-11-24T20:46:22.260Z,12.27
2023-11-24T20:48:49.219Z,12.26
2023-11-24T20:51:16.874Z,12.27
2023-11-24T20:53:43.797Z,12.27
2023-11-24T20:56:11.871Z,12.28
2023-11-24T20:58:39.466Z,12.27
2023-11-24T21:01:06.934Z,12.27
2023-11-24T21:03:33.950Z,12.27
2023-11-24T21:06:00.919Z,12.26
2023-11-24T21:08:28.324Z,12.26
2023-11-24T21:10:55.580Z,12.24
2023-11-24T21:13:23.647Z,12.24
2023-11-24T21:15:50.953Z,12.23
2023-11-24T21:18:18.034Z,12.22
2023-11-24T21:20:44.988Z,12.21
2023-11-24T21:23:13.246Z,12.20
2023-11-24T21:25:40.463Z,12.20
2023-11-24T21:28:09.150Z,12.18
2023-11-24T21:30:36.045Z,12.17
2023-11-24T21:33:03.151Z,12.17
2023-11-24T21:35:32.229Z,12.16
2023-11-24T21:37:59.305Z,12.16
2023-11-24T21:40:26.342Z,12.16
2023-11-24T21:42:53.376Z,12.14
2023-11-24T21:45:20.229Z,12.13
2023-11-24T21:47:47.404Z,12.12
2023-11-24T21:50:14.875Z,12.12
2023-11-24T21:52:42.261Z,12.11
2023-11-24T21:55:10.873Z,12.11
2023-11-24T21:57:37.836Z,12.10
2023-11-24T22:00:08.392Z,12.08
2023-11-24T22:02:40.725Z,12.06
2023-11-24T22:05:10.861Z,12.06
2023-11-24T22:07:38.554Z,12.04
2023-11-24T22:10:06.643Z,12.04
2023-11-24T22:12:37.224Z,12.03
2023-11-24T22:15:05.412Z,12.01
2023-11-24T22:17:34.104Z,11.99
2023-11-24T22:20:07.780Z,11.97
2023-11-24T22:22:34.890Z,11.93
2023-11-24T22:25:01.887Z,11.90
2023-11-24T22:27:28.778Z,11.90
2023-11-24T22:30:03.668Z,11.87
2023-11-24T22:32:33.422Z,11.85
2023-11-24T22:35:00.863Z,11.84
2023-11-24T22:37:28.374Z,11.82
2023-11-24T22:39:55.241Z,11.80
2023-11-24T22:42:23.398Z,11.79
2023-11-24T22:44:51.520Z,11.79
2023-11-24T22:47:19.216Z,11.78
2023-11-24T22:49:46.460Z,11.76
2023-11-24T22:52:13.315Z,11.75
2023-11-24T22:54:40.569Z,11.72
2023-11-24T22:57:08.158Z,11.72
2023-11-24T22:59:34.982Z,11.71
2023-11-24T23:02:01.947Z,11.70
2023-11-24T23:04:28.900Z,11.69
2023-11-24T23:06:55.818Z,11.68
2023-11-24T23:09:23.029Z,11.67
2023-11-24T23:11:50.292Z,11.66
2023-11-24T23:14:17.234Z,11.66
2023-11-24T23:16:45.471Z,11.64
2023-11-24T23:19:13.234Z,11.65
2023-11-24T23:21:42.208Z,11.64
2023-11-24T23:24:12.202Z,11.65
2023-11-24T23:26:39.858Z,11.65
2023-11-24T23:29:08.098Z,11.63
2023-11-24T23:31:35.419Z,11.61
2023-11-24T23:34:02.800Z,11.62
2023-11-24T23:36:29.845Z,11.60
2023-11-24T23:38:56.767Z,11.61
2023-11-24T23:41:23.984Z,11.60
2023-11-24T23:43:50.974Z,11.56
2023-11-24T23:46:18.067Z,11.54
2023-11-24T23:48:44.991Z,11.56
2023-11-24T23:51:12.585Z,11.54
2023-11-24T23:53:41.021Z,11.53
2023-11-24T23:56:08.517Z,11.52
2023-11-24T23:58:37.570Z,11.54
